Time;durP1;ratioP1;P1;durP2;ratioP2;P2;SDS_P1;SDS_P2;PMS_P1;PMS_P2;Temp;Humidity;BMP_temperature;BMP_pressure;BME280_temperature;BME280_humidity;BME280_pressure;Samples;Min_cycle;Max_cycle;Signal;HPM_P1;HPM_P2
2024/02/24 00:01:10;;;;;;;8.05;2.50;;;2.80;93.80;;;;;;5075221;28;20037;-58
2024/02/24 00:03:36;;;;;;;4.65;2.03;;;2.80;94.10;;;;;;5079288;28;20103;-59
2024/02/24 00:06:01;;;;;;;4.95;2.42;;;2.80;94.40;;;;;;5079400;28;20401;-58
2024/02/24 00:08:27;;;;;;;7.47;3.30;;;2.80;94.50;;;;;;5074272;28;20025;-59
2024/02/24 00:10:52;;;;;;;8.45;3.15;;;2.80;94.60;;;;;;5078859;28;20024;-58
2024/02/24 00:13:18;;;;;;;8.35;2.97;;;2.80;94.60;;;;;;5077719;28;20043;-57
2024/02/24 00:15:43;;;;;;;9.27;3.38;;;2.80;94.70;;;;;;5078754;28;20031;-57
2024/02/24 00:18:09;;;;;;;10.38;3.53;;;2.80;94.90;;;;;;5074240;28;20036;-59
2024/02/24 00:20:34;;;;;;;7.28;3.72;;;2.80;95.10;;;;;;5073994;28;20040;-59
2024/02/24 00:23:00;;;;;;;9.23;3.95;;;2.80;95.10;;;;;;5073385;28;20028;-58
2024/02/24 00:25:26;;;;;;;6.80;3.00;;;2.80;95.00;;;;;;5073343;28;20032;-58
2024/02/24 00:27:51;;;;;;;10.63;3.00;;;2.70;95.20;;;;;;5081159;28;20101;-58
2024/02/24 00:30:17;;;;;;;5.18;2.60;;;2.70;95.20;;;;;;5078945;28;20483;-59
2024/02/24 00:32:43;;;;;;;8.43;2.70;;;2.70;95.60;;;;;;5078445;28;20617;-58
2024/02/24 00:35:08;;;;;;;5.10;2.47;;;2.70;95.70;;;;;;5076797;28;20028;-58
2024/02/24 00:37:34;;;;;;;6.00;2.20;;;2.70;95.60;;;;;;5076535;28;20028;-57
2024/02/24 00:39:59;;;;;;;4.57;2.30;;;2.70;95.60;;;;;;5069630;28;20125;-58
2024/02/24 00:42:25;;;;;;;5.43;2.47;;;2.70;95.70;;;;;;5078583;28;20032;-58
2024/02/24 00:44:50;;;;;;;4.88;1.88;;;2.70;95.90;;;;;;5077220;28;20057;-59
2024/02/24 00:47:15;;;;;;;3.85;1.92;;;2.70;96.00;;;;;;5070803;28;20562;-58
2024/02/24 00:49:41;;;;;;;4.00;2.00;;;2.70;96.10;;;;;;5075780;28;20024;-59
2024/02/24 00:52:06;;;;;;;2.70;1.65;;;2.70;96.10;;;;;;5078906;28;20036;-59
2024/02/24 00:54:32;;;;;;;4.50;1.80;;;2.70;96.50;;;;;;5078994;28;20263;-59
2024/02/24 00:56:57;;;;;;;3.20;2.05;;;2.70;96.80;;;;;;5081454;28;20035;-58
2024/02/24 00:59:23;;;;;;;5.40;2.10;;;2.70;96.70;;;;;;5081082;28;20519;-59
2024/02/24 01:01:48;;;;;;;3.88;1.67;;;2.70;96.90;;;;;;5080211;28;20020;-58
2024/02/24 01:04:14;;;;;;;3.80;1.73;;;2.70;97.10;;;;;;5081013;28;20045;-58
2024/02/24 01:06:39;;;;;;;3.35;1.83;;;2.70;97.40;;;;;;5080506;28;20026;-58
2024/02/24 01:09:05;;;;;;;3.20;1.63;;;2.70;97.50;;;;;;5079399;28;20437;-58
2024/02/24 01:11:31;;;;;;;7.38;2.35;;;2.70;97.40;;;;;;5082526;28;20031;-58
2024/02/24 01:13:58;;;;;;;2.72;1.83;;;2.80;97.40;;;;;;5080389;28;20075;-58
2024/02/24 01:16:24;;;;;;;3.97;2.00;;;2.70;97.40;;;;;;5080603;28;20115;-58
2024/02/24 01:18:49;;;;;;;6.97;2.10;;;2.80;97.80;;;;;;5075186;28;20032;-59
2024/02/24 01:21:14;;;;;;;4.43;1.83;;;2.80;98.00;;;;;;5080224;28;20497;-60
2024/02/24 01:23:40;;;;;;;5.35;2.17;;;2.80;98.50;;;;;;5080657;28;20020;-58
2024/02/24 01:26:05;;;;;;;2.72;1.80;;;2.70;98.20;;;;;;5082566;28;20082;-58
2024/02/24 01:28:31;;;;;;;6.00;1.92;;;2.70;98.10;;;;;;5080371;28;20034;-59
2024/02/24 01:30:56;;;;;;;3.47;1.88;;;2.70;97.60;;;;;;5080081;28;20058;-58
2024/02/24 01:33:22;;;;;;;6.60;2.47;;;2.70;97.80;;;;;;5080460;28;20016;-59
2024/02/24 01:35:47;;;;;;;5.53;2.70;;;2.60;98.30;;;;;;5080146;28;20111;-59
2024/02/24 01:38:13;;;;;;;6.07;2.13;;;2.60;98.40;;;;;;5080272;28;20667;-60
2024/02/24 01:40:38;;;;;;;3.60;2.40;;;2.60;98.60;;;;;;5069278;28;20028;-59
2024/02/24 01:43:22;;;;;;;4.50;2.42;;;2.60;98.70;;;;;;5080129;28;20032;-58
2024/02/24 01:45:47;;;;;;;6.35;2.60;;;2.60;99.00;;;;;;5072223;28;20012;-59
2024/02/24 01:48:13;;;;;;;3.67;2.25;;;2.50;99.60;;;;;;5075266;28;20026;-57
2024/02/24 01:50:40;;;;;;;3.72;2.20;;;2.50;99.70;;;;;;5077681;28;20031;-58
2024/02/24 01:53:07;;;;;;;9.23;2.53;;;2.50;99.70;;;;;;5081693;28;20081;-59
2024/02/24 01:55:33;;;;;;;4.53;2.15;;;2.50;99.80;;;;;;5074796;28;20499;-58
2024/02/24 01:58:01;;;;;;;6.32;2.83;;;2.50;99.70;;;;;;5073985;28;20036;-59
2024/02/24 02:00:27;;;;;;;4.78;2.22;;;2.50;99.70;;;;;;5077307;28;20055;-60
2024/02/24 02:02:53;;;;;;;5.72;2.65;;;2.50;99.80;;;;;;5079923;28;20054;-58
2024/02/24 02:05:19;;;;;;;3.83;2.13;;;2.40;99.20;;;;;;5079713;28;20032;-58
2024/02/24 02:07:44;;;;;;;4.10;2.20;;;2.40;99.20;;;;;;5081572;28;20534;-58
2024/02/24 02:10:10;;;;;;;2.92;1.80;;;2.30;99.40;;;;;;5079320;28;20032;-58
2024/02/24 02:12:35;;;;;;;4.80;2.22;;;2.20;99.50;;;;;;5079889;28;20375;-59
2024/02/24 02:15:03;;;;;;;3.42;2.28;;;2.20;99.90;;;;;;5079423;28;20028;-58
2024/02/24 02:17:29;;;;;;;3.50;1.98;;;2.10;99.90;;;;;;5078751;28;20012;-58
2024/02/24 02:20:00;;;;;;;7.47;2.08;;;2.00;99.90;;;;;;5076291;28;20453;-58
2024/02/24 02:22:26;;;;;;;4.25;1.90;;;1.90;99.90;;;;;;5079519;28;20024;-58
2024/02/24 02:24:51;;;;;;;3.50;1.88;;;1.80;99.90;;;;;;5080035;28;20024;-57
2024/02/24 02:27:17;;;;;;;7.85;2.50;;;1.80;99.90;;;;;;5079492;28;20808;-59
2024/02/24 02:29:42;;;;;;;4.47;2.20;;;1.70;99.90;;;;;;5079618;28;20521;-59
2024/02/24 02:32:08;;;;;;;2.40;1.52;;;1.60;99.90;;;;;;5079072;28;20405;-58
2024/02/24 02:34:34;;;;;;;3.80;1.70;;;1.60;99.90;;;;;;5079515;28;20051;-59
2024/02/24 02:37:00;;;;;;;5.10;1.70;;;1.60;99.90;;;;;;5079068;28;20078;-58
2024/02/24 02:39:25;;;;;;;2.53;1.52;;;1.60;99.90;;;;;;5078016;28;20051;-58
2024/02/24 02:41:51;;;;;;;2.28;1.65;;;1.50;99.90;;;;;;5075055;28;20107;-58
2024/02/24 02:44:16;;;;;;;3.72;1.60;;;1.60;99.90;;;;;;5075078;28;20054;-59
2024/02/24 02:46:47;;;;;;;4.65;2.03;;;1.60;99.90;;;;;;5079149;28;20040;-58
2024/02/24 02:49:13;;;;;;;3.42;1.60;;;1.60;99.90;;;;;;5078841;28;20405;-58
2024/02/24 02:51:38;;;;;;;4.05;2.05;;;1.60;99.90;;;;;;5079343;28;20040;-58
2024/02/24 02:54:04;;;;;;;3.00;1.77;;;1.60;99.90;;;;;;5079165;28;20020;-59
2024/02/24 02:56:29;;;;;;;4.47;1.98;;;1.60;99.90;;;;;;5078684;28;20020;-58
2024/02/24 02:58:54;;;;;;;3.47;1.95;;;1.60;99.90;;;;;;5080935;28;20059;-57
2024/02/24 03:01:21;;;;;;;3.70;2.25;;;1.60;99.90;;;;;;5078532;28;20370;-59
2024/02/24 03:03:47;;;;;;;6.70;1.90;;;1.60;99.90;;;;;;5078519;28;20028;-58
2024/02/24 03:06:13;;;;;;;6.35;1.80;;;1.60;99.90;;;;;;5079065;28;20031;-57
2024/02/24 03:08:38;;;;;;;4.72;2.42;;;1.60;99.90;;;;;;5078471;28;20089;-58
2024/02/24 03:11:04;;;;;;;4.43;2.00;;;1.60;99.90;;;;;;5078836;28;20028;-58
2024/02/24 03:13:30;;;;;;;2.70;2.00;;;1.60;99.90;;;;;;5080743;28;20031;-58
2024/02/24 03:15:55;;;;;;;4.72;2.20;;;1.60;99.90;;;;;;5078630;28;20016;-58
2024/02/24 03:18:21;;;;;;;3.03;1.65;;;1.60;99.90;;;;;;5078209;28;20491;-59
2024/02/24 03:20:47;;;;;;;5.20;2.17;;;1.60;99.90;;;;;;5079046;28;20028;-58
2024/02/24 03:23:13;;;;;;;4.70;2.00;;;1.60;99.90;;;;;;5078541;28;20401;-58
2024/02/24 03:25:39;;;;;;;5.22;2.08;;;1.50;99.90;;;;;;5078489;28;20020;-58
2024/02/24 03:28:05;;;;;;;6.63;2.00;;;1.50;99.90;;;;;;5078550;28;20031;-57
2024/02/24 03:30:30;;;;;;;9.20;2.13;;;1.40;99.90;;;;;;5080489;28;20093;-58
2024/02/24 03:32:56;;;;;;;3.22;1.70;;;1.40;99.90;;;;;;5078434;28;20394;-59
2024/02/24 03:35:21;;;;;;;4.65;1.92;;;1.30;99.90;;;;;;5078700;28;20394;-58
2024/02/24 03:37:51;;;;;;;3.42;1.90;;;1.30;99.90;;;;;;5078597;28;20024;-60
2024/02/24 03:40:16;;;;;;;3.10;2.10;;;1.20;99.90;;;;;;5072547;28;20389;-59
2024/02/24 03:42:42;;;;;;;3.58;1.80;;;1.20;99.90;;;;;;5078306;28;20043;-58
2024/02/24 03:45:08;;;;;;;2.80;1.92;;;1.10;99.90;;;;;;5078972;28;20123;-58
2024/02/24 03:47:34;;;;;;;4.22;2.13;;;1.00;99.90;;;;;;5078372;28;20028;-58
2024/02/24 03:49:59;;;;;;;5.13;1.90;;;1.00;99.90;;;;;;5080170;28;20413;-58
2024/02/24 03:52:25;;;;;;;3.60;1.90;;;0.90;99.90;;;;;;5078799;28;20031;-59
2024/02/24 03:54:50;;;;;;;4.53;2.65;;;0.90;99.90;;;;;;5074409;28;20056;-59
2024/02/24 03:57:16;;;;;;;3.35;2.08;;;0.80;99.90;;;;;;5078114;28;20513;-58
2024/02/24 03:59:41;;;;;;;2.03;1.50;;;0.80;99.90;;;;;;5078412;28;20056;-58
2024/02/24 04:02:07;;;;;;;4.72;1.88;;;0.80;99.90;;;;;;5080140;28;20035;-59
2024/02/24 04:04:32;;;;;;;2.70;2.17;;;0.80;99.90;;;;;;5078352;28;20031;-59
2024/02/24 04:06:58;;;;;;;2.95;1.63;;;0.70;99.90;;;;;;5078805;28;20101;-58
2024/02/24 04:09:23;;;;;;;9.20;2.55;;;0.70;99.90;;;;;;5081442;28;20032;-59
2024/02/24 04:11:50;;;;;;;4.60;2.15;;;0.60;99.90;;;;;;5082194;28;20415;-58
2024/02/24 04:14:16;;;;;;;3.55;1.88;;;0.60;99.90;;;;;;5082103;28;20024;-59
2024/02/24 04:16:42;;;;;;;4.07;2.45;;;0.60;99.90;;;;;;5083787;28;20024;-58
2024/02/24 04:19:08;;;;;;;2.83;1.98;;;0.50;99.90;;;;;;5081245;28;20031;-60
2024/02/24 04:21:33;;;;;;;10.45;3.42;;;0.50;99.90;;;;;;5082174;28;20451;-52
2024/02/24 04:23:59;;;;;;;7.22;2.83;;;0.50;99.90;;;;;;5081727;28;20224;-54
2024/02/24 04:26:24;;;;;;;8.93;3.13;;;0.50;99.90;;;;;;5081361;28;20074;-55
2024/02/24 04:28:50;;;;;;;7.07;3.00;;;0.50;99.90;;;;;;5081471;28;20473;-53
2024/02/24 04:31:15;;;;;;;5.07;2.65;;;0.40;99.90;;;;;;5083444;28;20024;-53
2024/02/24 04:33:40;;;;;;;5.00;2.60;;;0.40;99.90;;;;;;5081107;28;20028;-54
2024/02/24 04:36:07;;;;;;;4.57;2.42;;;0.40;99.90;;;;;;5081486;28;20081;-55
2024/02/24 04:38:33;;;;;;;6.55;2.60;;;0.30;99.90;;;;;;5081039;28;20020;-53
2024/02/24 04:40:58;;;;;;;4.47;2.28;;;0.30;99.90;;;;;;5078415;28;20378;-55
2024/02/24 04:43:24;;;;;;;3.50;2.10;;;0.30;99.90;;;;;;5079991;28;20256;-54
2024/02/24 04:45:49;;;;;;;6.32;2.60;;;0.20;99.90;;;;;;5078474;28;20107;-55
2024/02/24 04:48:15;;;;;;;7.57;2.95;;;0.20;99.90;;;;;;5075261;28;20032;-51
2024/02/24 04:50:40;;;;;;;5.63;2.08;;;0.20;99.90;;;;;;5080881;28;20039;-50
2024/02/24 04:53:06;;;;;;;5.07;2.30;;;0.10;99.90;;;;;;5076884;28;20501;-54
2024/02/24 04:55:31;;;;;;;9.30;2.88;;;0.10;99.90;;;;;;5076921;28;20073;-55
2024/02/24 04:57:57;;;;;;;4.78;2.30;;;0.00;99.90;;;;;;5077006;28;20047;-54
2024/02/24 05:00:22;;;;;;;2.35;1.92;;;-0.10;99.90;;;;;;5082420;28;20030;-55
2024/02/24 05:02:49;;;;;;;3.75;2.50;;;-0.10;99.90;;;;;;5082778;28;20024;-55
2024/02/24 05:05:14;;;;;;;5.07;2.25;;;-0.10;99.90;;;;;;5081155;28;20162;-54
2024/02/24 05:07:40;;;;;;;4.75;1.67;;;-0.20;99.90;;;;;;5080973;28;20111;-51
2024/02/24 05:10:08;;;;;;;4.45;2.33;;;-0.20;99.90;;;;;;5080525;28;20056;-54
2024/02/24 05:12:34;;;;;;;9.48;3.75;;;-0.30;99.90;;;;;;5081045;28;20107;-52
2024/02/24 05:15:00;;;;;;;8.50;4.03;;;-0.30;99.90;;;;;;5080933;28;20392;-54
2024/02/24 05:17:25;;;;;;;5.05;2.80;;;-0.40;99.90;;;;;;5082810;28;20135;-52
2024/02/24 05:19:51;;;;;;;4.70;2.50;;;-0.40;99.90;;;;;;5080535;28;20020;-54
2024/02/24 05:22:16;;;;;;;7.97;2.75;;;-0.50;99.90;;;;;;5079639;28;20047;-55
2024/02/24 05:24:42;;;;;;;4.32;2.88;;;-0.50;99.90;;;;;;5080694;28;20024;-55
2024/02/24 05:27:07;;;;;;;6.47;2.53;;;-0.50;99.90;;;;;;5080153;28;20077;-54
2024/02/24 05:29:34;;;;;;;2.50;1.92;;;-0.60;99.90;;;;;;5078909;28;20506;-53
2024/02/24 05:31:59;;;;;;;4.15;2.25;;;-0.60;99.90;;;;;;5078332;28;20031;-55
2024/02/24 05:34:25;;;;;;;3.58;2.25;;;-0.60;99.90;;;;;;5080563;28;20114;-55
2024/02/24 05:36:50;;;;;;;7.05;2.38;;;-0.60;99.90;;;;;;5080746;28;20202;-54
2024/02/24 05:39:16;;;;;;;4.05;1.95;;;-0.70;99.90;;;;;;5074133;28;20035;-56
2024/02/24 05:41:41;;;;;;;4.13;2.00;;;-0.70;99.90;;;;;;5080511;28;20058;-55
2024/02/24 05:44:07;;;;;;;4.18;2.10;;;-0.70;99.90;;;;;;5079114;28;20378;-55
2024/02/24 05:46:32;;;;;;;4.15;2.38;;;-0.70;99.90;;;;;;5081909;28;20028;-52
2024/02/24 05:48:58;;;;;;;3.35;1.83;;;-0.80;99.90;;;;;;5080343;28;20389;-51
2024/02/24 05:51:24;;;;;;;4.15;2.15;;;-0.80;99.90;;;;;;5078773;28;20102;-54
2024/02/24 05:53:49;;;;;;;3.25;1.98;;;-0.80;99.90;;;;;;5079399;28;20106;-54
2024/02/24 05:56:15;;;;;;;2.42;1.80;;;-0.90;99.90;;;;;;5079583;28;20145;-50
2024/02/24 05:58:40;;;;;;;4.15;2.13;;;-0.90;99.90;;;;;;5074263;28;20664;-54
2024/02/24 06:01:06;;;;;;;5.07;2.28;;;-0.90;99.90;;;;;;5081934;28;20557;-51
2024/02/24 06:03:31;;;;;;;3.88;2.20;;;-0.90;99.90;;;;;;5080073;28;20164;-51
2024/02/24 06:05:57;;;;;;;2.30;1.73;;;-0.90;99.90;;;;;;5080010;28;20036;-53
2024/02/24 06:08:22;;;;;;;5.00;1.98;;;-0.90;99.90;;;;;;5079545;28;20111;-53
2024/02/24 06:10:48;;;;;;;3.00;2.10;;;-1.00;99.90;;;;;;5079923;28;20064;-53
2024/02/24 06:13:13;;;;;;;5.43;2.15;;;-1.00;99.90;;;;;;5080014;28;20039;-50
2024/02/24 06:15:39;;;;;;;2.70;2.30;;;-1.00;99.90;;;;;;5078045;28;20035;-54
2024/02/24 06:18:05;;;;;;;2.10;1.63;;;-1.00;99.90;;;;;;5081258;28;20118;-56
2024/02/24 06:20:30;;;;;;;3.30;1.83;;;-0.90;99.90;;;;;;5079658;28;20506;-55
2024/02/24 06:22:56;;;;;;;5.22;2.25;;;-1.00;99.90;;;;;;5079871;28;20162;-50
2024/02/24 06:25:22;;;;;;;4.70;2.50;;;-0.90;99.90;;;;;;5079580;28;20409;-54
2024/02/24 06:27:48;;;;;;;3.53;2.40;;;-0.90;99.90;;;;;;5079671;28;20020;-49
2024/02/24 06:30:14;;;;;;;4.45;2.28;;;-0.90;99.90;;;;;;5079222;28;20029;-54
2024/02/24 06:32:39;;;;;;;7.05;2.47;;;-0.90;99.90;;;;;;5081247;28;20099;-53
2024/02/24 06:35:05;;;;;;;4.43;2.05;;;-0.90;99.90;;;;;;5079691;28;20031;-54
2024/02/24 06:37:31;;;;;;;4.22;2.65;;;-0.80;99.90;;;;;;5079273;28;20093;-55
2024/02/24 06:39:56;;;;;;;5.53;2.47;;;-0.70;99.90;;;;;;5073460;28;20040;-51
2024/02/24 06:42:22;;;;;;;2.47;1.95;;;-0.70;99.90;;;;;;5079333;28;20085;-55
2024/02/24 06:44:47;;;;;;;4.38;2.78;;;-0.50;99.90;;;;;;5081170;28;20048;-55
2024/02/24 06:47:14;;;;;;;6.95;3.67;;;-0.30;99.90;;;;;;5079566;28;20444;-51
2024/02/24 06:49:39;;;;;;;3.92;2.42;;;-0.20;99.90;;;;;;5078913;28;20038;-55
2024/02/24 06:52:05;;;;;;;7.20;2.85;;;0.10;99.90;;;;;;5079357;28;20024;-53
2024/02/24 06:54:32;;;;;;;5.80;2.35;;;0.40;99.90;;;;;;5077878;28;20031;-52
2024/02/24 06:56:57;;;;;;;5.50;2.30;;;0.70;99.90;;;;;;5079385;28;20452;-55
2024/02/24 06:59:23;;;;;;;4.97;2.22;;;1.10;99.90;;;;;;5081044;28;20110;-53
2024/02/24 07:01:49;;;;;;;5.53;2.72;;;1.40;99.90;;;;;;5080326;28;20028;-55
2024/02/24 07:04:17;;;;;;;3.10;2.42;;;1.70;99.90;;;;;;5079021;28;20024;-54
2024/02/24 07:06:42;;;;;;;4.25;2.30;;;2.10;99.90;;;;;;5078842;28;20032;-55
2024/02/24 07:09:08;;;;;;;3.97;2.20;;;2.40;99.90;;;;;;5078637;28;20051;-55
2024/02/24 07:11:33;;;;;;;4.45;2.03;;;2.90;99.90;;;;;;5078619;28;20453;-55
2024/02/24 07:13:59;;;;;;;5.57;2.47;;;3.30;99.90;;;;;;5079212;28;20028;-55
2024/02/24 07:16:24;;;;;;;4.22;2.55;;;3.50;99.90;;;;;;5077728;28;20040;-53
2024/02/24 07:18:50;;;;;;;3.97;2.40;;;3.70;99.90;;;;;;5080787;28;20616;-53
2024/02/24 07:21:16;;;;;;;3.72;2.25;;;4.10;99.90;;;;;;5079073;28;20020;-53
2024/02/24 07:23:42;;;;;;;3.25;2.55;;;4.40;99.90;;;;;;5078749;28;20063;-54
2024/02/24 07:26:08;;;;;;;2.92;2.28;;;4.60;99.90;;;;;;5078964;28;20595;-53
2024/02/24 07:28:33;;;;;;;4.13;2.60;;;4.90;99.90;;;;;;5078704;28;20489;-55
2024/02/24 07:30:59;;;;;;;4.35;2.30;;;5.10;99.90;;;;;;5078760;28;20024;-51
2024/02/24 07:33:24;;;;;;;4.78;2.63;;;5.10;99.90;;;;;;5080686;28;20059;-54
2024/02/24 07:35:49;;;;;;;5.13;2.35;;;5.20;99.90;;;;;;5079017;28;20543;-55
2024/02/24 07:38:15;;;;;;;3.17;2.05;;;5.30;99.90;;;;;;5078051;28;20182;-55
2024/02/24 07:40:41;;;;;;;4.20;2.25;;;5.40;99.90;;;;;;5071440;28;20038;-55
2024/02/24 07:43:07;;;;;;;3.95;2.20;;;5.60;99.90;;;;;;5080503;28;20393;-54
2024/02/24 07:45:32;;;;;;;4.45;2.30;;;5.80;99.90;;;;;;5082437;28;20666;-53
2024/02/24 07:47:58;;;;;;;2.90;2.13;;;6.10;99.90;;;;;;5084164;28;20028;-55
2024/02/24 07:50:23;;;;;;;5.88;2.15;;;6.30;99.90;;;;;;5083645;28;22677;-55
2024/02/24 07:52:49;;;;;;;4.10;2.50;;;6.60;99.90;;;;;;5082509;28;20254;-55
2024/02/24 07:55:14;;;;;;;3.22;2.35;;;7.00;99.90;;;;;;5082313;28;20109;-55
2024/02/24 07:57:40;;;;;;;4.28;2.50;;;7.50;99.90;;;;;;5082483;28;20752;-53
2024/02/24 08:00:06;;;;;;;4.82;2.03;;;8.00;99.90;;;;;;5082416;28;20028;-48
2024/02/24 08:02:32;;;;;;;4.72;2.33;;;8.40;99.90;;;;;;5083154;28;20721;-48
2024/02/24 08:04:57;;;;;;;5.45;2.28;;;8.90;99.90;;;;;;5082544;28;20055;-53
2024/02/24 08:07:23;;;;;;;3.10;2.20;;;9.30;99.90;;;;;;5082012;28;20064;-53
2024/02/24 08:09:48;;;;;;;6.07;2.50;;;9.70;99.90;;;;;;5082020;28;20119;-53
2024/02/24 08:12:14;;;;;;;5.53;2.78;;;10.00;99.90;;;;;;5081932;28;20016;-51
2024/02/24 08:14:40;;;;;;;6.22;2.47;;;10.40;99.90;;;;;;5082423;28;20088;-53
2024/02/24 08:17:06;;;;;;;4.15;2.28;;;10.60;99.90;;;;;;5084181;28;20039;-54
2024/02/24 08:19:33;;;;;;;4.00;2.47;;;10.90;99.80;;;;;;5081865;28;20055;-51
2024/02/24 08:22:00;;;;;;;3.92;2.60;;;11.10;97.60;;;;;;5082355;28;20110;-54
2024/02/24 08:24:25;;;;;;;4.95;3.08;;;11.40;93.60;;;;;;5081835;28;20399;-54
2024/02/24 08:26:51;;;;;;;3.35;2.38;;;11.50;92.00;;;;;;5080079;28;20028;-53
2024/02/24 08:29:16;;;;;;;37.10;21.15;;;11.80;91.80;;;;;;5081647;28;20114;-51
2024/02/24 08:31:42;;;;;;;16.10;10.55;;;12.00;91.60;;;;;;5083804;28;20473;-54
2024/02/24 08:34:08;;;;;;;12.18;8.60;;;12.20;91.20;;;;;;5081710;28;20020;-55
2024/02/24 08:36:34;;;;;;;66.70;37.97;;;12.40;90.80;;;;;;5081868;28;20121;-53
2024/02/24 08:38:59;;;;;;;32.25;18.13;;;12.40;84.00;;;;;;5075270;28;20059;-53
2024/02/24 08:41:26;;;;;;;12.85;9.10;;;12.50;85.70;;;;;;5078489;28;20686;-52
2024/02/24 08:43:52;;;;;;;11.18;7.35;;;12.60;83.70;;;;;;5082133;28;20035;-53
2024/02/24 08:46:19;;;;;;;8.23;4.60;;;12.80;83.30;;;;;;5083114;28;20102;-55
2024/02/24 08:48:45;;;;;;;8.05;4.90;;;13.00;84.50;;;;;;5083310;28;20035;-55
2024/02/24 08:51:11;;;;;;;54.10;24.00;;;13.10;81.10;;;;;;5081445;28;20101;-54
2024/02/24 08:53:36;;;;;;;37.60;15.63;;;13.30;79.10;;;;;;5081031;28;20106;-53
2024/02/24 08:56:02;;;;;;;19.50;8.55;;;13.30;77.40;;;;;;5081547;28;20023;-54
2024/02/24 08:58:28;;;;;;;12.73;5.55;;;13.40;77.40;;;;;;5079840;28;20069;-54
2024/02/24 09:00:56;;;;;;;7.53;3.72;;;13.40;74.70;;;;;;5080474;28;20028;-50
2024/02/24 09:03:22;;;;;;;6.63;3.20;;;13.40;73.10;;;;;;5080834;28;20020;-54
2024/02/24 09:05:47;;;;;;;6.05;3.30;;;13.50;72.40;;;;;;5082348;28;20031;-53
2024/02/24 09:08:13;;;;;;;4.97;2.40;;;13.50;72.30;;;;;;5081223;28;20028;-55
2024/02/24 09:10:38;;;;;;;5.53;2.58;;;13.50;71.70;;;;;;5081017;28;20040;-53
2024/02/24 09:13:04;;;;;;;8.38;3.10;;;13.40;65.10;;;;;;5080947;28;20058;-54
2024/02/24 09:15:30;;;;;;;3.90;2.40;;;13.30;66.10;;;;;;5081002;28;20043;-51
2024/02/24 09:17:55;;;;;;;5.38;2.67;;;13.30;67.10;;;;;;5080745;28;20393;-54
2024/02/24 09:20:21;;;;;;;2.80;2.03;;;13.20;66.90;;;;;;5080990;28;20036;-53
2024/02/24 09:22:49;;;;;;;14.23;7.50;;;13.30;68.10;;;;;;5082551;28;20046;-51
2024/02/24 09:25:15;;;;;;;13.50;9.50;;;13.40;67.40;;;;;;5082544;28;20549;-52
2024/02/24 09:27:42;;;;;;;29.05;16.13;;;13.40;65.50;;;;;;5080711;28;20485;-54
2024/02/24 09:30:10;;;;;;;12.27;7.15;;;13.50;66.40;;;;;;5080278;28;20069;-54
2024/02/24 09:32:36;;;;;;;17.38;10.68;;;13.50;66.00;;;;;;5080758;28;20028;-54
2024/02/24 09:35:02;;;;;;;17.73;10.82;;;13.70;65.90;;;;;;5080470;28;20693;-54
2024/02/24 09:37:28;;;;;;;10.38;7.20;;;13.70;63.50;;;;;;5080074;28;20100;-54
2024/02/24 09:39:53;;;;;;;7.32;4.72;;;13.80;63.80;;;;;;5074547;28;20097;-55
2024/02/24 09:42:28;;;;;;;5.85;3.97;;;13.90;64.10;;;;;;5082010;28;20493;-55
2024/02/24 09:44:58;;;;;;;5.50;3.35;;;14.00;58.90;;;;;;5078666;28;20052;-55
2024/02/24 09:47:25;;;;;;;4.80;3.13;;;13.80;58.40;;;;;;5080522;28;20401;-55
2024/02/24 09:49:52;;;;;;;4.20;2.30;;;13.70;58.50;;;;;;5081817;28;20077;-53
2024/02/24 09:52:18;;;;;;;5.80;2.55;;;13.70;57.20;;;;;;5081053;28;20083;-54
2024/02/24 09:54:43;;;;;;;4.82;2.30;;;13.70;57.40;;;;;;5080228;28;20602;-54
2024/02/24 09:57:11;;;;;;;3.78;2.25;;;13.70;55.40;;;;;;5078335;28;20397;-53
2024/02/24 09:59:36;;;;;;;8.73;2.53;;;13.70;54.20;;;;;;5074345;28;20444;-53
2024/02/24 10:02:02;;;;;;;4.55;2.13;;;13.40;51.30;;;;;;5076818;28;20027;-51
2024/02/24 10:04:28;;;;;;;4.35;2.00;;;13.30;51.20;;;;;;5082060;28;20043;-53
2024/02/24 10:06:56;;;;;;;2.95;1.70;;;13.10;50.70;;;;;;5079281;28;20024;-51
2024/02/24 10:09:21;;;;;;;3.00;1.75;;;13.10;51.00;;;;;;5078472;28;20121;-54
2024/02/24 10:11:47;;;;;;;5.18;1.98;;;13.20;50.50;;;;;;5078650;28;20579;-54
2024/02/24 10:14:13;;;;;;;5.18;1.75;;;13.10;49.40;;;;;;5079907;28;20016;-53
2024/02/24 10:16:38;;;;;;;3.67;2.10;;;12.70;47.70;;;;;;5079890;28;20077;-53
2024/02/24 10:19:06;;;;;;;3.85;1.60;;;12.50;48.20;;;;;;5079616;28;20032;-55
2024/02/24 10:21:34;;;;;;;5.82;1.92;;;12.30;48.60;;;;;;5077725;28;20549;-52
2024/02/24 10:24:01;;;;;;;3.72;1.92;;;12.20;49.20;;;;;;5081685;28;20460;-59
2024/02/24 10:26:27;;;;;;;2.22;1.40;;;12.20;49.20;;;;;;5079627;28;20031;-59
2024/02/24 10:28:53;;;;;;;4.78;1.50;;;12.10;49.00;;;;;;5075586;28;20035;-59
2024/02/24 10:31:20;;;;;;;6.05;1.60;;;12.00;48.90;;;;;;5075545;28;20039;-59
2024/02/24 10:33:47;;;;;;;2.88;1.23;;;11.90;48.50;;;;;;5072146;28;20032;-59
2024/02/24 10:36:14;;;;;;;2.00;1.25;;;11.90;48.70;;;;;;5077664;28;20020;-60
2024/02/24 10:38:40;;;;;;;4.13;1.55;;;11.90;48.60;;;;;;5079118;28;20036;-59
2024/02/24 10:41:10;;;;;;;6.85;2.25;;;11.80;48.60;;;;;;5074460;28;20077;-59
2024/02/24 10:43:37;;;;;;;32.38;13.45;;;11.70;48.50;;;;;;5081343;28;20062;-60
2024/02/24 10:46:03;;;;;;;43.95;20.70;;;11.70;48.60;;;;;;5078168;28;20031;-59
2024/02/24 10:48:28;;;;;;;23.27;11.15;;;11.70;48.90;;;;;;5079105;28;20036;-59
2024/02/24 10:50:54;;;;;;;11.52;4.30;;;11.60;49.70;;;;;;5079535;28;20032;-60
2024/02/24 10:53:27;;;;;;;7.75;2.78;;;11.60;49.00;;;;;;5079070;28;20016;-59
2024/02/24 10:55:54;;;;;;;4.45;1.90;;;11.50;48.70;;;;;;5073771;28;20051;-59
2024/02/24 10:58:22;;;;;;;3.65;1.85;;;11.40;48.50;;;;;;5078638;28;20036;-59
2024/02/24 11:00:50;;;;;;;4.00;1.55;;;11.30;48.70;;;;;;5075254;28;20439;-59
2024/02/24 11:03:19;;;;;;;7.38;1.60;;;11.30;48.90;;;;;;5076867;28;20024;-59
2024/02/24 11:05:51;;;;;;;2.80;1.38;;;11.20;49.20;;;;;;5079328;28;20485;-59
2024/02/24 11:08:40;;;;;;;6.10;1.95;;;11.20;49.20;;;;;;5078870;28;20028;-59
2024/02/24 11:11:09;;;;;;;3.83;1.75;;;11.20;49.60;;;;;;5079253;28;20028;-59
2024/02/24 11:13:35;;;;;;;4.55;1.88;;;11.20;49.70;;;;;;5079041;28;20028;-59
2024/02/24 11:16:03;;;;;;;4.00;1.27;;;11.20;49.70;;;;;;5077322;28;20035;-59
2024/02/24 11:18:47;;;;;;;2.67;1.80;;;11.20;50.00;;;;;;5079715;28;20039;-59
2024/02/24 11:21:13;;;;;;;4.15;1.80;;;11.20;50.20;;;;;;5079250;28;20027;-60
2024/02/24 11:23:43;;;;;;;5.40;1.90;;;11.10;50.00;;;;;;5082876;28;20053;-59
2024/02/24 11:26:12;;;;;;;3.15;1.60;;;11.20;50.00;;;;;;5076075;28;20536;-59
2024/02/24 11:28:45;;;;;;;2.20;1.35;;;11.20;50.10;;;;;;5082214;28;20016;-59
2024/02/24 11:31:29;;;;;;;2.85;1.50;;;11.20;50.10;;;;;;5082584;28;20370;-59
2024/02/24 11:34:12;;;;;;;4.72;2.08;;;11.20;50.40;;;;;;5082583;28;20020;-57
2024/02/24 11:36:39;;;;;;;5.72;2.10;;;11.30;50.30;;;;;;5082381;28;20425;-59
2024/02/24 11:39:11;;;;;;;4.15;1.50;;;11.30;50.10;;;;;;5079958;28;20074;-60
2024/02/24 11:41:37;;;;;;;7.40;2.90;;;11.30;49.90;;;;;;5078478;28;20039;-59
2024/02/24 11:44:03;;;;;;;8.82;2.75;;;11.30;49.80;;;;;;5083298;28;20023;-59
2024/02/24 11:46:28;;;;;;;5.10;2.83;;;11.40;49.80;;;;;;5082822;28;20112;-59
2024/02/24 11:48:54;;;;;;;3.92;2.22;;;11.40;49.60;;;;;;5081016;28;20020;-59
2024/02/24 11:51:23;;;;;;;6.00;2.30;;;11.40;49.90;;;;;;5081770;28;20035;-60
2024/02/24 11:53:50;;;;;;;4.28;2.55;;;11.50;49.60;;;;;;5077670;28;20561;-59
2024/02/24 11:56:16;;;;;;;3.65;2.25;;;11.50;49.20;;;;;;5081734;28;20020;-60
2024/02/24 11:58:42;;;;;;;5.35;2.30;;;11.50;49.10;;;;;;5081024;28;20419;-60
2024/02/24 12:01:07;;;;;;;3.50;1.20;;;11.60;49.40;;;;;;5082255;28;20548;-60
2024/02/24 12:03:33;;;;;;;1.65;1.08;;;11.70;48.30;;;;;;5082391;28;20027;-60
2024/02/24 12:06:03;;;;;;;2.90;1.10;;;11.70;48.40;;;;;;5082330;28;20024;-58
2024/02/24 12:08:29;;;;;;;2.13;1.42;;;11.60;48.30;;;;;;5076526;28;20051;-58
2024/02/24 12:10:55;;;;;;;3.13;0.90;;;11.60;48.60;;;;;;5084171;28;20497;-57
2024/02/24 12:13:20;;;;;;;1.30;1.02;;;11.60;48.80;;;;;;5081724;28;20020;-60
2024/02/24 12:15:46;;;;;;;2.42;1.10;;;11.60;49.20;;;;;;5082413;28;20023;-59
2024/02/24 12:18:12;;;;;;;4.95;1.40;;;11.60;49.10;;;;;;5080342;28;20042;-60
2024/02/24 12:20:39;;;;;;;1.85;1.35;;;11.60;49.30;;;;;;5081971;28;20032;-60
2024/02/24 12:23:06;;;;;;;3.28;1.80;;;11.50;49.30;;;;;;5082224;28;20093;-59
2024/02/24 12:25:33;;;;;;;2.38;1.80;;;11.50;49.70;;;;;;5083457;28;20106;-60
2024/02/24 12:28:03;;;;;;;3.15;1.80;;;11.50;49.60;;;;;;5081746;28;20028;-59
2024/02/24 12:30:35;;;;;;;3.25;1.42;;;11.50;49.70;;;;;;5078092;28;20503;-59
2024/02/24 12:33:01;;;;;;;1.42;1.23;;;11.70;49.70;;;;;;5082732;28;20034;-59
2024/02/24 12:35:26;;;;;;;3.97;2.00;;;11.70;49.00;;;;;;5083802;28;20474;-60
2024/02/24 12:37:52;;;;;;;3.40;1.35;;;11.70;49.60;;;;;;5081702;28;20072;-59
2024/02/24 12:40:30;;;;;;;3.05;1.15;;;11.70;49.30;;;;;;5076104;28;20047;-60
2024/02/24 12:42:57;;;;;;;4.90;1.45;;;11.70;49.20;;;;;;5079822;28;20054;-60
2024/02/24 12:45:23;;;;;;;1.90;1.00;;;11.70;49.30;;;;;;5081150;28;20072;-60